createdAt,value
2023-03-17T00:02:02.356Z,4.87
2023-03-17T00:04:47.240Z,4.43
2023-03-17T00:07:32.197Z,4.34
2023-03-17T00:10:16.968Z,4.80
2023-03-17T00:13:01.860Z,4.57
2023-03-17T00:15:46.842Z,4.55
2023-03-17T00:18:31.790Z,4.61
2023-03-17T00:21:16.709Z,4.36
2023-03-17T00:24:01.469Z,5.49
2023-03-17T00:26:46.339Z,5.18
2023-03-17T00:29:31.238Z,5.29
2023-03-17T00:32:16.222Z,5.04
2023-03-17T00:35:01.016Z,5.06
2023-03-17T00:37:46.099Z,5.02
2023-03-17T00:40:31.373Z,5.23
2023-03-17T00:43:16.788Z,4.93
2023-03-17T00:46:01.715Z,4.95
2023-03-17T00:48:46.638Z,5.13
2023-03-17T00:51:31.585Z,5.23
2023-03-17T00:54:16.431Z,5.13
2023-03-17T00:57:01.294Z,5.09
2023-03-17T00:59:46.088Z,5.02
2023-03-17T01:02:31.053Z,4.86
2023-03-17T01:05:15.916Z,5.04
2023-03-17T01:08:00.921Z,5.17
2023-03-17T01:10:45.867Z,5.08
2023-03-17T01:13:30.720Z,5.45
2023-03-17T01:16:15.835Z,5.90
2023-03-17T01:19:01.019Z,5.61
2023-03-17T01:21:45.937Z,5.46
2023-03-17T01:24:30.779Z,5.27
2023-03-17T01:27:15.636Z,5.07
2023-03-17T01:30:00.454Z,5.10
2023-03-17T01:32:45.449Z,5.20
2023-03-17T01:35:30.405Z,5.00
2023-03-17T01:38:15.288Z,5.49
2023-03-17T01:41:00.218Z,5.82
2023-03-17T01:43:45.069Z,5.67
2023-03-17T01:46:30.006Z,5.68
2023-03-17T01:49:14.753Z,5.71
2023-03-17T01:51:59.698Z,5.93
2023-03-17T01:54:44.693Z,5.96
2023-03-17T01:57:29.600Z,6.20
2023-03-17T02:00:14.559Z,6.29
2023-03-17T02:02:59.370Z,5.59
2023-03-17T02:05:44.338Z,5.64
2023-03-17T02:08:29.084Z,5.40
2023-03-17T02:11:14.097Z,5.53
2023-03-17T02:13:58.979Z,6.04
2023-03-17T02:16:43.742Z,5.33
2023-03-17T02:19:28.685Z,5.28
2023-03-17T02:22:13.512Z,5.07
2023-03-17T02:24:58.441Z,5.22
2023-03-17T02:27:43.234Z,5.23
2023-03-17T02:30:28.303Z,4.85
2023-03-17T02:33:13.505Z,5.08
2023-03-17T02:35:58.466Z,4.80
2023-03-17T02:38:43.230Z,5.12
2023-03-17T02:41:28.177Z,5.03
2023-03-17T02:44:13.059Z,5.65
2023-03-17T02:46:58.008Z,5.34
2023-03-17T02:49:42.989Z,5.98
2023-03-17T02:52:27.758Z,6.07
2023-03-17T02:55:12.778Z,5.86
2023-03-17T02:57:57.612Z,6.02
2023-03-17T03:00:42.604Z,5.99
2023-03-17T03:03:27.424Z,5.49
2023-03-17T03:06:12.430Z,5.41
2023-03-17T03:08:57.206Z,5.19
2023-03-17T03:11:42.102Z,4.95
2023-03-17T03:14:26.931Z,5.07
2023-03-17T03:17:11.925Z,5.30
2023-03-17T03:19:56.765Z,5.07
2023-03-17T03:22:41.528Z,5.23
2023-03-17T03:25:26.359Z,4.98
2023-03-17T03:28:11.240Z,4.89
2023-03-17T03:30:56.274Z,4.69
2023-03-17T03:33:41.128Z,4.60
2023-03-17T03:36:26.011Z,4.48
2023-03-17T03:39:13.155Z,4.48
2023-03-17T03:41:59.377Z,4.31
2023-03-17T03:44:44.465Z,4.95
2023-03-17T03:47:29.339Z,4.84
2023-03-17T03:50:14.269Z,5.03
2023-03-17T03:52:59.255Z,4.70
2023-03-17T03:55:44.189Z,4.64
2023-03-17T03:58:29.056Z,4.92
2023-03-17T04:01:13.805Z,4.77
2023-03-17T04:03:58.670Z,5.02
2023-03-17T04:06:43.407Z,4.74
2023-03-17T04:09:28.233Z,5.26
2023-03-17T04:12:13.034Z,5.62
2023-03-17T04:14:57.942Z,6.25
2023-03-17T04:17:42.871Z,6.51
2023-03-17T04:20:27.682Z,6.39
2023-03-17T04:23:12.615Z,6.22
2023-03-17T04:25:57.455Z,6.16
2023-03-17T04:28:42.435Z,6.00
2023-03-17T04:31:27.281Z,6.14
2023-03-17T04:34:12.192Z,5.62
2023-03-17T04:36:57.037Z,5.52
2023-03-17T04:39:41.904Z,5.37
2023-03-17T04:42:26.854Z,5.15
2023-03-17T04:45:11.662Z,5.10
2023-03-17T04:47:56.555Z,4.85
2023-03-17T04:50:41.415Z,4.99
2023-03-17T04:53:26.464Z,4.98
2023-03-17T04:56:11.284Z,5.24
2023-03-17T04:58:56.195Z,5.26
2023-03-17T05:01:41.016Z,5.26
2023-03-17T05:04:31.748Z,5.55
2023-03-17T05:07:17.341Z,5.33
2023-03-17T05:10:02.206Z,6.08
2023-03-17T05:12:47.035Z,6.23
2023-03-17T05:15:31.795Z,6.06
2023-03-17T05:18:16.649Z,6.90
2023-03-17T05:21:01.377Z,6.58
2023-03-17T05:23:46.199Z,6.45
2023-03-17T05:26:31.284Z,6.54
2023-03-17T05:29:16.080Z,6.32
2023-03-17T05:32:00.986Z,5.98
2023-03-17T05:34:45.828Z,6.21
2023-03-17T05:37:30.613Z,6.23
2023-03-17T05:40:15.782Z,6.26
2023-03-17T05:43:00.514Z,5.73
2023-03-17T05:45:45.434Z,5.71
2023-03-17T05:48:30.159Z,5.91
2023-03-17T05:51:15.146Z,5.85
2023-03-17T05:53:59.998Z,5.87
2023-03-17T05:56:44.879Z,6.25
2023-03-17T05:59:29.779Z,6.03
2023-03-17T06:02:14.715Z,5.87
2023-03-17T06:04:59.499Z,5.85
2023-03-17T06:07:53.898Z,5.59
2023-03-17T06:10:40.762Z,5.68
2023-03-17T06:13:25.782Z,5.98
2023-03-17T06:16:10.749Z,5.81
2023-03-17T06:18:55.505Z,5.66
2023-03-17T06:21:40.346Z,6.39
2023-03-17T06:24:25.260Z,6.23
2023-03-17T06:27:10.241Z,6.92
2023-03-17T06:29:55.149Z,6.61
2023-03-17T06:32:40.183Z,6.78
2023-03-17T06:35:24.991Z,6.27
2023-03-17T06:38:09.991Z,6.56
2023-03-17T06:40:54.776Z,7.77
2023-03-17T06:43:39.652Z,8.00
2023-03-17T06:46:24.679Z,8.33
2023-03-17T06:49:09.530Z,7.96
2023-03-17T06:51:54.397Z,8.31
2023-03-17T06:54:39.207Z,8.47
2023-03-17T06:57:24.256Z,8.69
2023-03-17T07:00:09.082Z,8.57
2023-03-17T07:02:54.050Z,9.08
2023-03-17T07:05:38.827Z,8.87
2023-03-17T07:08:23.696Z,9.63
2023-03-17T07:11:08.604Z,10.26
2023-03-17T07:13:53.423Z,10.53
2023-03-17T07:16:38.421Z,11.19
2023-03-17T07:19:23.130Z,10.91
2023-03-17T07:22:07.960Z,10.97
2023-03-17T07:24:52.860Z,10.80
2023-03-17T07:27:37.809Z,11.40
2023-03-17T07:30:22.553Z,11.51
2023-03-17T07:33:07.465Z,10.93
2023-03-17T07:35:52.314Z,10.68
2023-03-17T07:38:36.999Z,10.53
2023-03-17T07:41:21.821Z,10.04
2023-03-17T07:44:06.620Z,9.10
2023-03-17T07:46:51.575Z,8.41
2023-03-17T07:49:41.598Z,8.62
2023-03-17T07:52:27.010Z,8.67
2023-03-17T07:55:11.898Z,8.94
2023-03-17T07:57:56.709Z,9.08
2023-03-17T08:00:41.947Z,9.73
2023-03-17T08:03:26.837Z,9.95
2023-03-17T08:06:11.775Z,11.02
2023-03-17T08:08:56.658Z,10.63
2023-03-17T08:11:41.591Z,9.96
2023-03-17T08:14:26.529Z,10.10
2023-03-17T08:17:11.400Z,9.97
2023-03-17T08:19:56.246Z,9.60
2023-03-17T08:22:41.101Z,9.88
2023-03-17T08:25:25.908Z,9.90
2023-03-17T08:28:10.766Z,9.72
2023-03-17T08:30:55.697Z,9.69
2023-03-17T08:33:40.575Z,9.84
2023-03-17T08:36:25.325Z,9.51
2023-03-17T08:39:10.432Z,9.46
2023-03-17T08:41:55.325Z,8.73
2023-03-17T08:44:42.210Z,6.83
2023-03-17T08:47:30.448Z,6.79
2023-03-17T08:50:15.519Z,6.15
2023-03-17T08:53:00.518Z,6.17
2023-03-17T08:55:45.310Z,6.37
2023-03-17T08:58:30.152Z,7.09
2023-03-17T09:01:15.053Z,5.13
2023-03-17T09:03:59.986Z,4.57
2023-03-17T09:07:01.836Z,5.08
2023-03-17T09:09:47.411Z,5.54
2023-03-17T09:12:34.109Z,10.73
2023-03-17T09:15:19.289Z,11.01
2023-03-17T09:18:04.169Z,11.11
2023-03-17T09:20:49.051Z,10.78
2023-03-17T09:23:33.900Z,10.30
2023-03-17T09:26:18.862Z,10.33
2023-03-17T09:29:04.661Z,9.88
2023-03-17T09:31:49.430Z,10.40
2023-03-17T09:34:34.115Z,10.42
2023-03-17T09:37:19.178Z,10.18
2023-03-17T09:40:04.126Z,10.50
2023-03-17T09:42:49.079Z,10.38
2023-03-17T09:45:34.012Z,10.24
2023-03-17T09:48:18.777Z,9.64
2023-03-17T09:51:03.576Z,9.69
2023-03-17T09:53:48.408Z,10.15
2023-03-17T09:56:33.437Z,10.38
2023-03-17T09:59:18.302Z,11.22
2023-03-17T10:02:03.308Z,11.98
2023-03-17T10:04:48.139Z,11.55
2023-03-17T10:07:32.869Z,11.05
2023-03-17T10:10:17.866Z,10.59
2023-03-17T10:13:02.712Z,10.79
2023-03-17T10:15:47.732Z,10.48
2023-03-17T10:18:32.470Z,9.91
2023-03-17T10:21:17.399Z,9.35
2023-03-17T10:24:02.233Z,8.37
2023-03-17T10:26:47.211Z,8.05
2023-03-17T10:29:32.070Z,8.56
2023-03-17T10:32:16.948Z,7.23
2023-03-17T10:35:01.904Z,6.90
2023-03-17T10:37:46.705Z,4.86
2023-03-17T10:40:31.920Z,4.22
2023-03-17T10:43:16.970Z,3.78
2023-03-17T10:46:01.902Z,3.36
2023-03-17T10:48:46.744Z,7.46
2023-03-17T10:51:31.640Z,6.78
2023-03-17T10:54:16.536Z,6.56
2023-03-17T10:57:01.586Z,8.46
2023-03-17T10:59:46.636Z,9.05
2023-03-17T11:02:31.419Z,6.57
2023-03-17T11:05:16.317Z,6.86
2023-03-17T11:08:01.182Z,5.77
2023-03-17T11:10:46.234Z,4.54
2023-03-17T11:13:31.016Z,5.64
2023-03-17T11:16:16.128Z,6.11
2023-03-17T11:19:00.926Z,4.49
2023-03-17T11:21:45.797Z,4.60
2023-03-17T11:24:32.167Z,5.96
2023-03-17T11:27:16.943Z,3.64
2023-03-17T11:30:01.817Z,3.67
2023-03-17T11:32:46.744Z,3.53
2023-03-17T11:35:31.606Z,4.95
2023-03-17T11:38:16.386Z,4.67
2023-03-17T11:41:01.233Z,4.49
2023-03-17T11:43:46.211Z,5.13
2023-03-17T11:46:31.155Z,7.21
2023-03-17T11:49:16.406Z,7.47
2023-03-17T11:52:01.359Z,8.02
2023-03-17T11:54:46.274Z,7.03
2023-03-17T11:57:31.136Z,7.79
2023-03-17T12:00:16.153Z,7.38
2023-03-17T12:03:01.116Z,6.97
2023-03-17T12:05:46.022Z,6.63
2023-03-17T12:08:30.900Z,5.57
2023-03-17T12:11:15.729Z,3.74
2023-03-17T12:14:00.664Z,4.55
2023-03-17T12:16:45.470Z,4.88
2023-03-17T12:19:30.406Z,4.64
2023-03-17T12:22:15.253Z,4.29
2023-03-17T12:25:00.174Z,3.95
2023-03-17T12:27:45.129Z,3.52
2023-03-17T12:30:30.196Z,3.82
2023-03-17T12:33:15.481Z,3.80
2023-03-17T12:36:00.447Z,3.52
2023-03-17T12:38:45.469Z,3.25
2023-03-17T12:41:30.300Z,3.26
2023-03-17T12:44:15.191Z,2.94
2023-03-17T12:47:00.025Z,2.92
2023-03-17T12:49:45.006Z,2.84
2023-03-17T12:52:29.931Z,2.79
2023-03-17T12:55:14.800Z,2.64
2023-03-17T12:57:59.675Z,2.66
2023-03-17T13:00:44.507Z,3.62
2023-03-17T13:03:29.406Z,3.90
2023-03-17T13:06:14.189Z,3.40
2023-03-17T13:08:59.029Z,2.76
2023-03-17T13:11:43.900Z,2.50
2023-03-17T13:14:28.833Z,2.43
2023-03-17T13:17:13.690Z,2.49
2023-03-17T13:19:58.608Z,2.46
2023-03-17T13:22:43.701Z,2.48
2023-03-17T13:25:28.456Z,2.55
2023-03-17T13:28:13.459Z,2.47
2023-03-17T13:30:58.440Z,2.35
2023-03-17T13:33:43.373Z,2.23
2023-03-17T13:36:28.175Z,2.29
2023-03-17T13:39:19.858Z,2.47
2023-03-17T13:42:17.622Z,2.54
2023-03-17T13:45:03.513Z,2.41
2023-03-17T13:47:48.519Z,2.66
2023-03-17T13:50:33.454Z,2.32
2023-03-17T13:53:18.477Z,2.61
2023-03-17T13:56:03.349Z,2.54
2023-03-17T13:58:48.164Z,2.86
2023-03-17T14:01:33.195Z,2.17
2023-03-17T14:04:17.927Z,2.41
2023-03-17T14:07:02.762Z,2.47
2023-03-17T14:09:47.687Z,2.72
2023-03-17T14:12:32.585Z,3.70
2023-03-17T14:15:17.301Z,2.52
2023-03-17T14:18:02.319Z,3.08
2023-03-17T14:20:47.246Z,4.56
2023-03-17T14:23:32.085Z,4.16
2023-03-17T14:26:16.922Z,3.92
2023-03-17T14:29:01.723Z,4.18
2023-03-17T14:31:46.806Z,4.32
2023-03-17T14:34:31.463Z,4.25
2023-03-17T14:37:16.298Z,4.18
2023-03-17T14:40:01.167Z,4.19
2023-03-17T14:42:46.058Z,4.06
2023-03-17T14:45:31.306Z,4.02
2023-03-17T14:48:16.696Z,3.88
2023-03-17T14:51:01.556Z,3.69
2023-03-17T14:53:46.528Z,3.32
2023-03-17T14:56:31.867Z,3.20
2023-03-17T14:59:16.674Z,3.16
2023-03-17T15:02:01.687Z,3.10
2023-03-17T15:04:46.629Z,2.80
2023-03-17T15:07:31.513Z,2.68
2023-03-17T15:10:16.496Z,2.42
2023-03-17T15:13:01.344Z,2.11
2023-03-17T15:15:46.233Z,2.26
2023-03-17T15:18:31.034Z,2.34
2023-03-17T15:21:15.962Z,2.25
2023-03-17T15:24:00.813Z,2.30
2023-03-17T15:26:45.809Z,2.17
2023-03-17T15:29:30.497Z,2.13
2023-03-17T15:32:15.522Z,1.71
2023-03-17T15:35:00.415Z,1.98
2023-03-17T15:37:45.325Z,2.20
2023-03-17T15:40:30.580Z,2.27
2023-03-17T15:43:15.621Z,2.80
2023-03-17T15:46:00.652Z,2.79
2023-03-17T15:48:45.426Z,2.71
2023-03-17T15:51:30.416Z,2.87
2023-03-17T15:54:15.302Z,2.84
2023-03-17T15:57:00.100Z,3.20
2023-03-17T15:59:45.006Z,3.08
2023-03-17T16:02:29.772Z,2.92
2023-03-17T16:05:14.811Z,2.90
2023-03-17T16:07:59.672Z,2.74
2023-03-17T16:10:44.726Z,2.47
2023-03-17T16:13:29.597Z,2.63
2023-03-17T16:16:14.432Z,2.87
2023-03-17T16:18:59.188Z,2.93
2023-03-17T16:21:44.089Z,2.94
2023-03-17T16:24:28.986Z,2.94
2023-03-17T16:27:13.902Z,2.57
2023-03-17T16:29:58.851Z,2.27
2023-03-17T16:32:43.492Z,2.75
2023-03-17T16:35:28.425Z,2.80
2023-03-17T16:38:13.193Z,2.97
2023-03-17T16:40:58.236Z,3.40
2023-03-17T16:43:43.034Z,4.07
2023-03-17T16:46:28.078Z,3.87
2023-03-17T16:49:12.947Z,3.44
2023-03-17T16:51:57.816Z,3.21
2023-03-17T16:54:42.666Z,3.28
2023-03-17T16:57:27.541Z,3.77
2023-03-17T17:00:12.422Z,3.80
2023-03-17T17:02:57.370Z,4.16
2023-03-17T17:05:42.227Z,3.83
2023-03-17T17:08:27.613Z,3.22
2023-03-17T17:11:12.512Z,2.79
2023-03-17T17:13:57.389Z,2.43
2023-03-17T17:16:42.256Z,2.29
2023-03-17T17:19:27.320Z,2.15
2023-03-17T17:22:12.060Z,2.26
2023-03-17T17:24:57.019Z,2.11
2023-03-17T17:27:41.817Z,2.18
2023-03-17T17:30:26.633Z,2.34
2023-03-17T17:33:11.429Z,1.81
2023-03-17T17:35:56.460Z,2.34
2023-03-17T17:38:41.319Z,2.68
2023-03-17T17:41:26.251Z,3.52
2023-03-17T17:44:11.049Z,3.04
2023-03-17T17:46:55.926Z,3.30
2023-03-17T17:49:40.891Z,3.50
2023-03-17T17:52:25.666Z,3.35
2023-03-17T17:55:10.733Z,3.40
2023-03-17T17:57:55.753Z,3.81
2023-03-17T18:00:40.691Z,3.41
2023-03-17T18:03:25.658Z,3.61
2023-03-17T18:06:10.552Z,3.80
2023-03-17T18:08:55.347Z,3.46
2023-03-17T18:11:40.240Z,3.47
2023-03-17T18:14:25.294Z,3.25
2023-03-17T18:17:10.184Z,3.33
2023-03-17T18:19:55.179Z,3.10
2023-03-17T18:22:40.088Z,3.11
2023-03-17T18:25:24.947Z,3.01
2023-03-17T18:28:09.816Z,2.79
2023-03-17T18:30:54.612Z,2.96
2023-03-17T18:33:39.461Z,2.85
2023-03-17T18:36:24.269Z,2.69
2023-03-17T18:39:09.796Z,2.98
2023-03-17T18:41:54.654Z,3.60
2023-03-17T18:44:39.554Z,2.79
2023-03-17T18:47:24.603Z,2.40
2023-03-17T18:50:09.413Z,2.77
2023-03-17T18:52:54.309Z,2.67
2023-03-17T18:55:39.122Z,2.39
2023-03-17T18:58:24.146Z,2.75
2023-03-17T19:01:09.159Z,2.82
2023-03-17T19:03:54.017Z,2.46
2023-03-17T19:06:38.804Z,2.83
2023-03-17T19:09:23.757Z,2.92
2023-03-17T19:12:08.591Z,2.58
2023-03-17T19:14:53.392Z,2.79
2023-03-17T19:17:38.296Z,2.75
2023-03-17T19:20:23.153Z,2.59
2023-03-17T19:23:08.074Z,2.71
2023-03-17T19:25:52.947Z,2.57
2023-03-17T19:28:38.026Z,2.31
2023-03-17T19:31:22.910Z,2.52
2023-03-17T19:34:07.778Z,2.32
2023-03-17T19:36:52.587Z,2.44
2023-03-17T19:39:37.342Z,2.46
2023-03-17T19:42:22.279Z,2.51
2023-03-17T19:45:07.164Z,2.52
2023-03-17T19:47:52.116Z,3.83
2023-03-17T19:50:37.030Z,4.14
2023-03-17T19:53:21.984Z,3.88
2023-03-17T19:56:06.846Z,3.43
2023-03-17T19:58:51.858Z,3.00
2023-03-17T20:01:36.716Z,2.75
2023-03-17T20:04:21.624Z,2.65
2023-03-17T20:07:06.635Z,3.58
2023-03-17T20:09:51.416Z,2.65
2023-03-17T20:12:36.413Z,2.38
2023-03-17T20:15:21.158Z,2.75
2023-03-17T20:18:06.162Z,2.86
2023-03-17T20:20:51.117Z,2.89
2023-03-17T20:23:36.207Z,2.51
2023-03-17T20:26:21.004Z,3.06
2023-03-17T20:29:05.963Z,4.81
2023-03-17T20:31:50.827Z,3.72
2023-03-17T20:34:35.773Z,3.06
2023-03-17T20:37:20.628Z,3.12
2023-03-17T20:40:05.638Z,2.41
2023-03-17T20:42:50.555Z,2.46
2023-03-17T20:45:35.413Z,3.74
2023-03-17T20:48:20.422Z,2.90
2023-03-17T20:51:05.202Z,2.40
2023-03-17T20:53:50.087Z,2.93
2023-03-17T20:56:34.969Z,2.98
2023-03-17T20:59:19.845Z,3.23
2023-03-17T21:02:04.984Z,2.74
2023-03-17T21:04:50.087Z,2.92
2023-03-17T21:07:35.172Z,3.07
2023-03-17T21:10:19.894Z,3.08
2023-03-17T21:13:04.681Z,3.34
2023-03-17T21:15:49.562Z,3.36
2023-03-17T21:18:34.527Z,3.53
2023-03-17T21:21:19.381Z,3.00
2023-03-17T21:24:04.307Z,3.11
2023-03-17T21:26:49.221Z,3.01
2023-03-17T21:29:34.045Z,3.42
2023-03-17T21:32:18.999Z,2.85
2023-03-17T21:35:03.812Z,2.64
2023-03-17T21:37:48.631Z,2.90
2023-03-17T21:40:33.864Z,2.64
2023-03-17T21:43:19.058Z,2.75
2023-03-17T21:46:04.392Z,2.86
2023-03-17T21:48:49.651Z,2.88
2023-03-17T21:51:34.580Z,2.57
2023-03-17T21:54:19.436Z,2.64
2023-03-17T21:57:04.327Z,2.38
2023-03-17T21:59:49.066Z,2.55
2023-03-17T22:02:35.270Z,2.52
2023-03-17T22:05:20.571Z,2.62
2023-03-17T22:08:05.377Z,2.87
2023-03-17T22:10:50.311Z,5.50
2023-03-17T22:13:35.216Z,10.28
2023-03-17T22:16:20.189Z,3.73
2023-03-17T22:19:04.918Z,2.88
2023-03-17T22:21:49.798Z,2.31
2023-03-17T22:24:34.666Z,2.34
2023-03-17T22:27:19.513Z,2.36
2023-03-17T22:30:04.475Z,2.40
2023-03-17T22:32:49.296Z,2.45
2023-03-17T22:35:34.264Z,2.40
2023-03-17T22:38:19.074Z,2.55
2023-03-17T22:41:04.137Z,2.48
2023-03-17T22:43:48.938Z,2.44
2023-03-17T22:46:33.864Z,2.58
2023-03-17T22:49:18.865Z,2.44
2023-03-17T22:52:03.836Z,2.40
2023-03-17T22:54:48.760Z,2.65
2023-03-17T22:57:33.790Z,2.82
2023-03-17T23:00:18.752Z,2.79
2023-03-17T23:03:03.436Z,2.93
2023-03-17T23:05:48.360Z,2.74
2023-03-17T23:08:33.189Z,2.88
2023-03-17T23:11:18.365Z,2.79
2023-03-17T23:14:03.208Z,2.62
2023-03-17T23:16:48.204Z,2.45
2023-03-17T23:19:33.051Z,2.36
2023-03-17T23:22:17.806Z,2.45
2023-03-17T23:25:02.768Z,2.30
2023-03-17T23:27:47.560Z,2.19
2023-03-17T23:30:32.712Z,2.23
2023-03-17T23:33:17.770Z,2.26
2023-03-17T23:36:02.666Z,2.24
2023-03-17T23:38:47.540Z,2.27
2023-03-17T23:41:32.391Z,2.44
2023-03-17T23:44:17.331Z,2.35
2023-03-17T23:47:02.263Z,2.39
2023-03-17T23:49:47.015Z,11.48
2023-03-17T23:52:31.966Z,2.81
2023-03-17T23:55:16.973Z,2.33
2023-03-17T23:58:02.157Z,2.72
